sensor_id;sensor_type;location;lat;lon;timestamp;noise_LAeq;noise_LA_min;noise_LA_max;noise_LA01;noise_LA95
47109;Laerm;32856;51.422;6.794;2024-03-02T00:02:20;54.61;46.71;69.83;;
47109;Laerm;32856;51.422;6.794;2024-03-02T00:04:47;55.44;47.84;71.43;;
47109;Laerm;32856;51.422;6.794;2024-03-02T00:07:15;59.45;48.29;74.15;;
47109;Laerm;32856;51.422;6.794;2024-03-02T00:09:42;56.98;47.46;76.79;;
47109;Laerm;32856;51.422;6.794;2024-03-02T00:12:10;57.16;47.44;79.34;;
47109;Laerm;32856;51.422;6.794;2024-03-02T00:14:39;55.90;48.83;72.91;;
47109;Laerm;32856;51.422;6.794;2024-03-02T00:17:11;58.90;49.28;73.23;;
47109;Laerm;32856;51.422;6.794;2024-03-02T00:19:45;53.97;43.99;74.55;;
47109;Laerm;32856;51.422;6.794;2024-03-02T00:22:12;51.65;46.80;67.95;;
47109;Laerm;32856;51.422;6.794;2024-03-02T00:24:40;52.37;47.16;62.70;;
47109;Laerm;32856;51.422;6.794;2024-03-02T00:27:07;56.64;49.76;80.97;;
47109;Laerm;32856;51.422;6.794;2024-03-02T00:29:37;54.86;49.52;64.26;;
47109;Laerm;32856;51.422;6.794;2024-03-02T00:32:05;53.41;48.31;69.16;;
47109;Laerm;32856;51.422;6.794;2024-03-02T00:34:36;58.90;45.69;73.35;;
47109;Laerm;32856;51.422;6.794;2024-03-02T00:37:03;52.16;45.91;63.53;;
47109;Laerm;32856;51.422;6.794;2024-03-02T00:39:31;55.69;46.34;72.59;;
47109;Laerm;32856;51.422;6.794;2024-03-02T00:41:58;56.58;46.35;72.83;;
47109;Laerm;32856;51.422;6.794;2024-03-02T00:44:26;56.87;45.66;71.97;;
47109;Laerm;32856;51.422;6.794;2024-03-02T00:46:55;54.95;48.31;69.33;;
47109;Laerm;32856;51.422;6.794;2024-03-02T00:49:23;55.11;46.43;69.80;;
47109;Laerm;32856;51.422;6.794;2024-03-02T00:51:53;58.80;45.14;73.57;;
47109;Laerm;32856;51.422;6.794;2024-03-02T00:54:21;55.26;44.58;71.84;;
47109;Laerm;32856;51.422;6.794;2024-03-02T00:56:50;55.19;45.80;70.37;;
47109;Laerm;32856;51.422;6.794;2024-03-02T00:59:18;56.93;44.94;75.47;;
47109;Laerm;32856;51.422;6.794;2024-03-02T01:01:45;53.29;47.52;68.15;;
47109;Laerm;32856;51.422;6.794;2024-03-02T01:04:12;56.98;47.06;72.96;;
47109;Laerm;32856;51.422;6.794;2024-03-02T01:06:40;60.54;46.48;88.06;;
47109;Laerm;32856;51.422;6.794;2024-03-02T01:09:09;53.17;45.45;62.71;;
47109;Laerm;32856;51.422;6.794;2024-03-02T01:11:38;52.24;44.80;66.10;;
47109;Laerm;32856;51.422;6.794;2024-03-02T01:14:05;51.87;45.89;62.66;;
47109;Laerm;32856;51.422;6.794;2024-03-02T01:16:33;55.06;47.90;71.46;;
47109;Laerm;32856;51.422;6.794;2024-03-02T01:19:00;51.49;46.10;62.39;;
47109;Laerm;32856;51.422;6.794;2024-03-02T01:21:28;54.19;44.97;68.69;;
47109;Laerm;32856;51.422;6.794;2024-03-02T01:23:55;52.21;44.54;58.18;;
47109;Laerm;32856;51.422;6.794;2024-03-02T01:26:24;52.78;47.18;69.79;;
47109;Laerm;32856;51.422;6.794;2024-03-02T01:28:51;56.66;45.36;71.91;;
47109;Laerm;32856;51.422;6.794;2024-03-02T01:31:18;55.19;46.69;72.19;;
47109;Laerm;32856;51.422;6.794;2024-03-02T01:33:46;54.93;45.51;69.46;;
47109;Laerm;32856;51.422;6.794;2024-03-02T01:36:14;55.72;46.20;70.78;;
47109;Laerm;32856;51.422;6.794;2024-03-02T01:38:41;55.24;46.91;74.55;;
47109;Laerm;32856;51.422;6.794;2024-03-02T01:41:08;55.47;45.20;71.36;;
47109;Laerm;32856;51.422;6.794;2024-03-02T01:43:39;53.18;47.93;66.12;;
47109;Laerm;32856;51.422;6.794;2024-03-02T01:46:07;56.67;47.22;74.68;;
47109;Laerm;32856;51.422;6.794;2024-03-02T01:48:35;54.76;44.19;72.09;;
47109;Laerm;32856;51.422;6.794;2024-03-02T01:51:03;56.07;44.35;72.31;;
47109;Laerm;32856;51.422;6.794;2024-03-02T01:53:32;53.79;45.97;71.86;;
47109;Laerm;32856;51.422;6.794;2024-03-02T01:56:00;52.23;46.64;67.18;;
47109;Laerm;32856;51.422;6.794;2024-03-02T01:58:27;52.05;47.36;59.64;;
47109;Laerm;32856;51.422;6.794;2024-03-02T02:00:56;55.88;47.40;74.37;;
47109;Laerm;32856;51.422;6.794;2024-03-02T02:03:24;52.76;47.95;59.42;;
47109;Laerm;32856;51.422;6.794;2024-03-02T02:05:51;52.25;47.30;57.96;;
47109;Laerm;32856;51.422;6.794;2024-03-02T02:08:18;55.30;46.20;70.54;;
47109;Laerm;32856;51.422;6.794;2024-03-02T02:10:46;52.85;46.73;59.01;;
47109;Laerm;32856;51.422;6.794;2024-03-02T02:13:13;55.87;49.57;65.27;;
47109;Laerm;32856;51.422;6.794;2024-03-02T02:15:40;52.99;46.87;59.99;;
47109;Laerm;32856;51.422;6.794;2024-03-02T02:18:09;52.08;45.36;62.68;;
47109;Laerm;32856;51.422;6.794;2024-03-02T02:20:36;56.91;44.23;73.86;;
47109;Laerm;32856;51.422;6.794;2024-03-02T02:23:05;52.42;46.69;58.58;;
47109;Laerm;32856;51.422;6.794;2024-03-02T02:25:34;51.89;45.94;60.88;;
47109;Laerm;32856;51.422;6.794;2024-03-02T02:28:01;51.92;45.57;64.74;;
47109;Laerm;32856;51.422;6.794;2024-03-02T02:30:29;58.16;46.05;75.52;;
47109;Laerm;32856;51.422;6.794;2024-03-02T02:32:57;56.20;45.66;72.77;;
47109;Laerm;32856;51.422;6.794;2024-03-02T02:35:24;55.41;45.97;72.13;;
47109;Laerm;32856;51.422;6.794;2024-03-02T02:37:52;57.11;48.26;72.16;;
47109;Laerm;32856;51.422;6.794;2024-03-02T02:40:21;51.34;45.72;58.16;;
47109;Laerm;32856;51.422;6.794;2024-03-02T02:42:49;51.41;44.51;59.82;;
47109;Laerm;32856;51.422;6.794;2024-03-02T02:45:18;55.27;46.05;70.16;;
47109;Laerm;32856;51.422;6.794;2024-03-02T02:47:45;53.89;45.46;62.00;;
47109;Laerm;32856;51.422;6.794;2024-03-02T02:50:13;52.55;47.83;59.19;;
47109;Laerm;32856;51.422;6.794;2024-03-02T02:52:41;52.71;46.38;59.48;;
47109;Laerm;32856;51.422;6.794;2024-03-02T02:55:09;51.24;45.42;59.94;;
47109;Laerm;32856;51.422;6.794;2024-03-02T02:57:39;51.04;45.65;58.80;;
47109;Laerm;32856;51.422;6.794;2024-03-02T03:00:08;53.44;48.15;60.46;;
47109;Laerm;32856;51.422;6.794;2024-03-02T03:02:40;55.30;47.30;70.95;;
47109;Laerm;32856;51.422;6.794;2024-03-02T03:05:08;52.01;45.72;58.22;;
47109;Laerm;32856;51.422;6.794;2024-03-02T03:07:36;55.12;47.59;71.30;;
47109;Laerm;32856;51.422;6.794;2024-03-02T03:10:06;56.17;45.83;75.46;;
47109;Laerm;32856;51.422;6.794;2024-03-02T03:12:33;59.65;46.80;80.09;;
47109;Laerm;32856;51.422;6.794;2024-03-02T03:15:03;53.43;48.67;57.72;;
47109;Laerm;32856;51.422;6.794;2024-03-02T03:17:32;50.69;45.17;56.60;;
47109;Laerm;32856;51.422;6.794;2024-03-02T03:20:00;50.88;45.33;56.21;;
47109;Laerm;32856;51.422;6.794;2024-03-02T03:22:28;53.73;47.84;69.07;;
47109;Laerm;32856;51.422;6.794;2024-03-02T03:24:55;53.62;47.06;69.83;;
47109;Laerm;32856;51.422;6.794;2024-03-02T03:27:23;57.71;47.30;73.56;;
47109;Laerm;32856;51.422;6.794;2024-03-02T03:29:50;56.36;47.74;70.98;;
47109;Laerm;32856;51.422;6.794;2024-03-02T03:32:19;50.54;44.94;57.06;;
47109;Laerm;32856;51.422;6.794;2024-03-02T03:34:46;56.06;45.48;72.31;;
47109;Laerm;32856;51.422;6.794;2024-03-02T03:37:14;52.37;45.77;80.46;;
47109;Laerm;32856;51.422;6.794;2024-03-02T03:39:42;54.88;46.40;76.59;;
47109;Laerm;32856;51.422;6.794;2024-03-02T03:42:09;60.22;47.42;79.35;;
47109;Laerm;32856;51.422;6.794;2024-03-02T03:44:37;60.10;47.67;78.29;;
47109;Laerm;32856;51.422;6.794;2024-03-02T03:47:05;56.02;45.04;72.98;;
47109;Laerm;32856;51.422;6.794;2024-03-02T03:49:34;49.14;43.24;58.85;;
47109;Laerm;32856;51.422;6.794;2024-03-02T03:52:02;51.71;46.38;57.64;;
47109;Laerm;32856;51.422;6.794;2024-03-02T03:54:30;50.66;45.94;56.14;;
47109;Laerm;32856;51.422;6.794;2024-03-02T03:56:57;50.28;46.13;57.97;;
47109;Laerm;32856;51.422;6.794;2024-03-02T03:59:24;52.35;48.55;57.54;;
47109;Laerm;32856;51.422;6.794;2024-03-02T04:01:52;51.31;45.14;61.30;;
47109;Laerm;32856;51.422;6.794;2024-03-02T04:04:19;55.36;47.57;69.19;;
47109;Laerm;32856;51.422;6.794;2024-03-02T04:06:48;53.02;48.94;62.50;;
47109;Laerm;32856;51.422;6.794;2024-03-02T04:09:15;56.01;49.35;71.16;;
47109;Laerm;32856;51.422;6.794;2024-03-02T04:11:43;54.91;46.07;70.96;;
47109;Laerm;32856;51.422;6.794;2024-03-02T04:14:10;59.78;49.43;79.07;;
47109;Laerm;32856;51.422;6.794;2024-03-02T04:16:38;59.75;48.66;77.50;;
47109;Laerm;32856;51.422;6.794;2024-03-02T04:19:06;50.55;45.72;56.13;;
47109;Laerm;32856;51.422;6.794;2024-03-02T04:21:33;54.17;47.81;70.71;;
47109;Laerm;32856;51.422;6.794;2024-03-02T04:24:02;55.68;45.04;73.15;;
47109;Laerm;32856;51.422;6.794;2024-03-02T04:26:30;52.88;46.95;57.50;;
47109;Laerm;32856;51.422;6.794;2024-03-02T04:28:57;51.33;45.69;56.41;;
47109;Laerm;32856;51.422;6.794;2024-03-02T04:31:25;52.48;48.23;56.62;;
47109;Laerm;32856;51.422;6.794;2024-03-02T04:33:52;55.45;48.31;68.72;;
47109;Laerm;32856;51.422;6.794;2024-03-02T04:36:20;59.93;49.55;77.56;;
47109;Laerm;32856;51.422;6.794;2024-03-02T04:38:47;54.40;48.85;60.83;;
47109;Laerm;32856;51.422;6.794;2024-03-02T04:41:16;53.45;48.80;56.89;;
47109;Laerm;32856;51.422;6.794;2024-03-02T04:43:44;62.68;50.83;78.28;;
47109;Laerm;32856;51.422;6.794;2024-03-02T04:46:11;55.46;49.56;70.67;;
47109;Laerm;32856;51.422;6.794;2024-03-02T04:48:38;58.01;50.66;72.69;;
47109;Laerm;32856;51.422;6.794;2024-03-02T04:51:06;54.10;50.18;58.71;;
47109;Laerm;32856;51.422;6.794;2024-03-02T04:53:34;57.12;49.02;72.76;;
47109;Laerm;32856;51.422;6.794;2024-03-02T04:56:01;55.77;48.46;69.06;;
47109;Laerm;32856;51.422;6.794;2024-03-02T04:58:46;54.32;49.79;62.21;;
47109;Laerm;32856;51.422;6.794;2024-03-02T05:01:14;59.95;51.57;76.49;;
47109;Laerm;32856;51.422;6.794;2024-03-02T05:03:42;55.26;50.74;64.94;;
47109;Laerm;32856;51.422;6.794;2024-03-02T05:06:10;54.89;47.96;59.18;;
47109;Laerm;32856;51.422;6.794;2024-03-02T05:08:38;54.14;48.61;59.68;;
47109;Laerm;32856;51.422;6.794;2024-03-02T05:11:05;60.58;49.03;75.84;;
47109;Laerm;32856;51.422;6.794;2024-03-02T05:13:48;56.89;50.69;70.76;;
47109;Laerm;32856;51.422;6.794;2024-03-02T05:16:15;62.39;50.75;77.47;;
47109;Laerm;32856;51.422;6.794;2024-03-02T05:18:42;57.64;49.40;72.48;;
47109;Laerm;32856;51.422;6.794;2024-03-02T05:21:10;58.90;49.51;74.92;;
47109;Laerm;32856;51.422;6.794;2024-03-02T05:23:37;56.47;50.57;68.68;;
47109;Laerm;32856;51.422;6.794;2024-03-02T05:26:05;54.87;49.93;63.49;;
47109;Laerm;32856;51.422;6.794;2024-03-02T05:28:33;58.29;51.18;71.73;;
47109;Laerm;32856;51.422;6.794;2024-03-02T05:31:01;57.64;51.97;70.70;;
47109;Laerm;32856;51.422;6.794;2024-03-02T05:33:29;60.48;51.71;76.86;;
47109;Laerm;32856;51.422;6.794;2024-03-02T05:35:58;58.46;50.70;71.77;;
47109;Laerm;32856;51.422;6.794;2024-03-02T05:38:25;55.42;51.10;62.83;;
47109;Laerm;32856;51.422;6.794;2024-03-02T05:40:52;55.60;51.49;64.88;;
47109;Laerm;32856;51.422;6.794;2024-03-02T05:43:19;55.17;51.46;62.10;;
47109;Laerm;32856;51.422;6.794;2024-03-02T05:45:47;61.42;50.68;76.02;;
47109;Laerm;32856;51.422;6.794;2024-03-02T05:48:16;59.83;50.88;76.09;;
47109;Laerm;32856;51.422;6.794;2024-03-02T05:50:43;60.57;51.67;74.19;;
47109;Laerm;32856;51.422;6.794;2024-03-02T05:53:10;56.91;51.67;67.79;;
47109;Laerm;32856;51.422;6.794;2024-03-02T05:55:38;61.61;52.81;76.90;;
47109;Laerm;32856;51.422;6.794;2024-03-02T05:58:05;58.97;50.70;72.38;;
47109;Laerm;32856;51.422;6.794;2024-03-02T06:00:48;58.89;49.91;75.05;;
47109;Laerm;32856;51.422;6.794;2024-03-02T06:03:17;56.66;52.06;63.87;;
47109;Laerm;32856;51.422;6.794;2024-03-02T06:05:44;57.98;49.94;73.19;;
47109;Laerm;32856;51.422;6.794;2024-03-02T06:08:12;57.67;52.29;71.57;;
47109;Laerm;32856;51.422;6.794;2024-03-02T06:10:39;60.56;50.45;76.49;;
47109;Laerm;32856;51.422;6.794;2024-03-02T06:13:07;60.08;50.77;78.77;;
47109;Laerm;32856;51.422;6.794;2024-03-02T06:15:34;58.79;51.80;71.39;;
47109;Laerm;32856;51.422;6.794;2024-03-02T06:18:03;61.67;50.45;78.43;;
47109;Laerm;32856;51.422;6.794;2024-03-02T06:20:31;61.11;52.96;74.05;;
47109;Laerm;32856;51.422;6.794;2024-03-02T06:23:01;59.65;51.70;74.42;;
47109;Laerm;32856;51.422;6.794;2024-03-02T06:25:29;57.17;52.50;68.78;;
47109;Laerm;32856;51.422;6.794;2024-03-02T06:27:56;57.28;51.40;69.75;;
47109;Laerm;32856;51.422;6.794;2024-03-02T06:30:23;56.66;52.00;66.65;;
47109;Laerm;32856;51.422;6.794;2024-03-02T06:32:51;60.17;52.00;75.14;;
47109;Laerm;32856;51.422;6.794;2024-03-02T06:35:18;61.66;51.17;76.28;;
47109;Laerm;32856;51.422;6.794;2024-03-02T06:37:47;58.30;51.91;72.45;;
47109;Laerm;32856;51.422;6.794;2024-03-02T06:40:14;59.09;51.11;72.87;;
47109;Laerm;32856;51.422;6.794;2024-03-02T06:42:42;60.64;52.41;73.64;;
47109;Laerm;32856;51.422;6.794;2024-03-02T06:45:09;60.42;50.91;77.56;;
47109;Laerm;32856;51.422;6.794;2024-03-02T06:47:37;55.84;52.09;62.49;;
47109;Laerm;32856;51.422;6.794;2024-03-02T06:50:04;62.55;51.70;76.61;;
47109;Laerm;32856;51.422;6.794;2024-03-02T06:52:33;58.84;50.99;73.88;;
47109;Laerm;32856;51.422;6.794;2024-03-02T06:55:01;57.83;52.57;74.04;;
47109;Laerm;32856;51.422;6.794;2024-03-02T06:57:30;61.98;52.47;78.31;;
47109;Laerm;32856;51.422;6.794;2024-03-02T06:59:57;57.41;50.79;68.36;;
47109;Laerm;32856;51.422;6.794;2024-03-02T07:02:25;58.87;52.31;72.35;;
47109;Laerm;32856;51.422;6.794;2024-03-02T07:04:53;61.48;52.09;75.15;;
47109;Laerm;32856;51.422;6.794;2024-03-02T07:07:21;59.38;52.15;73.48;;
47109;Laerm;32856;51.422;6.794;2024-03-02T07:09:48;62.13;52.08;76.37;;
47109;Laerm;32856;51.422;6.794;2024-03-02T07:12:17;60.23;51.51;74.60;;
47109;Laerm;32856;51.422;6.794;2024-03-02T07:14:44;62.99;51.13;77.79;;
47109;Laerm;32856;51.422;6.794;2024-03-02T07:17:29;61.50;51.93;75.56;;
47109;Laerm;32856;51.422;6.794;2024-03-02T07:19:57;62.00;52.69;74.74;;
47109;Laerm;32856;51.422;6.794;2024-03-02T07:22:24;60.80;53.00;75.21;;
47109;Laerm;32856;51.422;6.794;2024-03-02T07:24:52;60.46;52.46;73.65;;
47109;Laerm;32856;51.422;6.794;2024-03-02T07:27:20;58.19;51.15;72.63;;
47109;Laerm;32856;51.422;6.794;2024-03-02T07:29:48;58.58;52.48;73.20;;
47109;Laerm;32856;51.422;6.794;2024-03-02T07:32:15;60.27;51.77;75.96;;
47109;Laerm;32856;51.422;6.794;2024-03-02T07:34:43;59.14;52.16;72.16;;
47109;Laerm;32856;51.422;6.794;2024-03-02T07:37:10;60.06;51.37;75.56;;
47109;Laerm;32856;51.422;6.794;2024-03-02T07:39:37;62.07;51.72;75.31;;
47109;Laerm;32856;51.422;6.794;2024-03-02T07:42:05;62.14;52.81;73.85;;
47109;Laerm;32856;51.422;6.794;2024-03-02T07:44:34;64.39;51.93;78.20;;
47109;Laerm;32856;51.422;6.794;2024-03-02T07:47:01;60.83;52.21;75.77;;
47109;Laerm;32856;51.422;6.794;2024-03-02T07:49:28;59.99;51.80;74.28;;
47109;Laerm;32856;51.422;6.794;2024-03-02T07:51:56;60.36;51.47;74.49;;
47109;Laerm;32856;51.422;6.794;2024-03-02T07:54:23;63.25;51.66;75.19;;
47109;Laerm;32856;51.422;6.794;2024-03-02T07:56:50;61.56;50.59;74.72;;
47109;Laerm;32856;51.422;6.794;2024-03-02T07:59:18;63.30;51.91;77.82;;
47109;Laerm;32856;51.422;6.794;2024-03-02T08:01:46;62.80;52.23;76.21;;
47109;Laerm;32856;51.422;6.794;2024-03-02T08:04:14;63.19;51.97;75.00;;
47109;Laerm;32856;51.422;6.794;2024-03-02T08:06:41;57.04;50.84;72.36;;
47109;Laerm;32856;51.422;6.794;2024-03-02T08:09:08;59.77;50.97;73.81;;
47109;Laerm;32856;51.422;6.794;2024-03-02T08:11:36;63.15;51.50;74.52;;
47109;Laerm;32856;51.422;6.794;2024-03-02T08:14:04;70.84;54.53;83.61;;
47109;Laerm;32856;51.422;6.794;2024-03-02T08:16:32;65.04;51.79;80.40;;
47109;Laerm;32856;51.422;6.794;2024-03-02T08:19:01;62.08;51.22;75.71;;
47109;Laerm;32856;51.422;6.794;2024-03-02T08:21:29;62.55;50.38;75.42;;
47109;Laerm;32856;51.422;6.794;2024-03-02T08:23:58;62.12;50.88;75.63;;
47109;Laerm;32856;51.422;6.794;2024-03-02T08:26:25;62.70;50.76;76.32;;
47109;Laerm;32856;51.422;6.794;2024-03-02T08:28:55;64.61;51.30;76.65;;
47109;Laerm;32856;51.422;6.794;2024-03-02T08:31:22;63.27;52.30;74.87;;
47109;Laerm;32856;51.422;6.794;2024-03-02T08:33:49;64.21;53.56;74.15;;
47109;Laerm;32856;51.422;6.794;2024-03-02T08:36:18;63.40;52.11;77.65;;
47109;Laerm;32856;51.422;6.794;2024-03-02T08:38:46;64.10;52.26;74.78;;
47109;Laerm;32856;51.422;6.794;2024-03-02T08:41:15;63.32;52.67;75.66;;
47109;Laerm;32856;51.422;6.794;2024-03-02T08:43:42;64.55;52.61;82.80;;
47109;Laerm;32856;51.422;6.794;2024-03-02T08:46:10;64.48;52.94;77.30;;
47109;Laerm;32856;51.422;6.794;2024-03-02T08:48:37;64.30;53.48;75.17;;
47109;Laerm;32856;51.422;6.794;2024-03-02T08:51:05;66.64;52.36;89.25;;
47109;Laerm;32856;51.422;6.794;2024-03-02T08:53:35;64.33;53.11;77.22;;
47109;Laerm;32856;51.422;6.794;2024-03-02T08:56:03;65.29;51.81;78.31;;
47109;Laerm;32856;51.422;6.794;2024-03-02T08:58:31;61.01;52.00;72.42;;
47109;Laerm;32856;51.422;6.794;2024-03-02T09:00:59;64.59;51.69;77.27;;
47109;Laerm;32856;51.422;6.794;2024-03-02T09:03:27;67.79;54.41;81.36;;
47109;Laerm;32856;51.422;6.794;2024-03-02T09:05:54;64.13;52.91;82.90;;
47109;Laerm;32856;51.422;6.794;2024-03-02T09:08:22;64.06;52.19;75.26;;
47109;Laerm;32856;51.422;6.794;2024-03-02T09:10:50;59.89;51.80;73.31;;
47109;Laerm;32856;51.422;6.794;2024-03-02T09:13:18;62.58;52.09;79.67;;
47109;Laerm;32856;51.422;6.794;2024-03-02T09:15:46;61.01;52.34;74.84;;
47109;Laerm;32856;51.422;6.794;2024-03-02T09:18:13;65.14;53.24;77.66;;
47109;Laerm;32856;51.422;6.794;2024-03-02T09:20:41;65.76;53.72;78.13;;
47109;Laerm;32856;51.422;6.794;2024-03-02T09:23:09;63.71;53.36;75.17;;
47109;Laerm;32856;51.422;6.794;2024-03-02T09:25:36;64.70;53.73;80.02;;
47109;Laerm;32856;51.422;6.794;2024-03-02T09:28:05;62.20;52.31;73.64;;
47109;Laerm;32856;51.422;6.794;2024-03-02T09:30:33;62.33;52.20;76.00;;
47109;Laerm;32856;51.422;6.794;2024-03-02T09:33:00;62.63;51.91;74.56;;
47109;Laerm;32856;51.422;6.794;2024-03-02T09:35:31;60.76;51.45;72.76;;
47109;Laerm;32856;51.422;6.794;2024-03-02T09:37:58;63.87;51.96;76.77;;
47109;Laerm;32856;51.422;6.794;2024-03-02T09:40:25;61.07;51.69;73.15;;
47109;Laerm;32856;51.422;6.794;2024-03-02T09:42:53;64.57;53.10;74.66;;
47109;Laerm;32856;51.422;6.794;2024-03-02T09:45:23;64.12;54.69;76.21;;
47109;Laerm;32856;51.422;6.794;2024-03-02T09:47:51;64.93;53.16;78.45;;
47109;Laerm;32856;51.422;6.794;2024-03-02T09:50:18;67.83;56.38;85.08;;
47109;Laerm;32856;51.422;6.794;2024-03-02T09:52:47;65.76;53.51;84.78;;
47109;Laerm;32856;51.422;6.794;2024-03-02T09:55:15;63.97;52.02;78.31;;
47109;Laerm;32856;51.422;6.794;2024-03-02T09:57:43;64.18;52.21;74.46;;
47109;Laerm;32856;51.422;6.794;2024-03-02T10:00:11;64.25;52.67;77.09;;
47109;Laerm;32856;51.422;6.794;2024-03-02T10:02:42;64.13;52.24;75.35;;
47109;Laerm;32856;51.422;6.794;2024-03-02T10:05:10;63.71;52.09;76.81;;
47109;Laerm;32856;51.422;6.794;2024-03-02T10:07:38;61.33;52.59;73.28;;
47109;Laerm;32856;51.422;6.794;2024-03-02T10:10:12;64.91;52.28;73.91;;
47109;Laerm;32856;51.422;6.794;2024-03-02T10:12:40;61.92;52.50;72.74;;
47109;Laerm;32856;51.422;6.794;2024-03-02T10:15:07;63.46;52.56;77.26;;
47109;Laerm;32856;51.422;6.794;2024-03-02T10:17:35;65.47;49.60;85.38;;
47109;Laerm;32856;51.422;6.794;2024-03-02T10:20:23;62.86;51.44;74.38;;
47109;Laerm;32856;51.422;6.794;2024-03-02T10:22:51;65.24;52.45;75.66;;
47109;Laerm;32856;51.422;6.794;2024-03-02T10:25:28;67.54;52.00;87.19;;
47109;Laerm;32856;51.422;6.794;2024-03-02T10:28:01;64.12;54.36;73.79;;
47109;Laerm;32856;51.422;6.794;2024-03-02T10:30:31;62.92;52.76;72.50;;
47109;Laerm;32856;51.422;6.794;2024-03-02T10:32:59;64.26;53.31;75.87;;
47109;Laerm;32856;51.422;6.794;2024-03-02T10:35:28;62.89;52.57;73.91;;
47109;Laerm;32856;51.422;6.794;2024-03-02T10:37:58;66.11;53.58;86.19;;
47109;Laerm;32856;51.422;6.794;2024-03-02T10:40:26;63.56;52.19;73.49;;
47109;Laerm;32856;51.422;6.794;2024-03-02T10:42:54;62.53;53.02;75.85;;
47109;Laerm;32856;51.422;6.794;2024-03-02T10:45:21;61.70;52.38;74.20;;
47109;Laerm;32856;51.422;6.794;2024-03-02T10:47:49;61.34;51.34;73.78;;
47109;Laerm;32856;51.422;6.794;2024-03-02T10:50:17;63.92;53.25;80.74;;
47109;Laerm;32856;51.422;6.794;2024-03-02T10:52:46;65.14;53.51;79.00;;
47109;Laerm;32856;51.422;6.794;2024-03-02T10:55:13;63.20;52.74;75.41;;
47109;Laerm;32856;51.422;6.794;2024-03-02T10:57:41;65.05;51.06;75.80;;
47109;Laerm;32856;51.422;6.794;2024-03-02T11:00:11;63.32;50.83;75.85;;
47109;Laerm;32856;51.422;6.794;2024-03-02T11:02:45;64.59;52.87;74.76;;
47109;Laerm;32856;51.422;6.794;2024-03-02T11:05:14;63.41;52.54;77.26;;
47109;Laerm;32856;51.422;6.794;2024-03-02T11:07:47;64.04;50.59;73.33;;
47109;Laerm;32856;51.422;6.794;2024-03-02T11:10:15;66.25;51.26;78.34;;
47109;Laerm;32856;51.422;6.794;2024-03-02T11:12:44;64.89;51.98;74.48;;
47109;Laerm;32856;51.422;6.794;2024-03-02T11:15:17;65.62;53.24;80.23;;
47109;Laerm;32856;51.422;6.794;2024-03-02T11:17:45;63.95;53.74;76.28;;
47109;Laerm;32856;51.422;6.794;2024-03-02T11:20:13;63.00;51.73;75.35;;
47109;Laerm;32856;51.422;6.794;2024-03-02T11:22:41;63.99;52.91;74.22;;
47109;Laerm;32856;51.422;6.794;2024-03-02T11:25:23;63.98;52.57;76.61;;
47109;Laerm;32856;51.422;6.794;2024-03-02T11:28:02;65.04;52.99;76.61;;
47109;Laerm;32856;51.422;6.794;2024-03-02T11:33:16;64.87;52.71;75.96;;
47109;Laerm;32856;51.422;6.794;2024-03-02T11:35:49;63.37;52.57;73.78;;
47109;Laerm;32856;51.422;6.794;2024-03-02T11:38:17;65.72;51.50;78.00;;
47109;Laerm;32856;51.422;6.794;2024-03-02T11:40:46;65.89;55.08;76.82;;
47109;Laerm;32856;51.422;6.794;2024-03-02T11:43:13;65.65;52.91;77.91;;
47109;Laerm;32856;51.422;6.794;2024-03-02T11:45:41;64.62;51.94;79.11;;
47109;Laerm;32856;51.422;6.794;2024-03-02T11:48:11;64.78;52.85;75.31;;
47109;Laerm;32856;51.422;6.794;2024-03-02T11:50:40;63.41;53.13;77.39;;
47109;Laerm;32856;51.422;6.794;2024-03-02T11:53:08;65.91;53.43;75.65;;
47109;Laerm;32856;51.422;6.794;2024-03-02T11:55:36;65.38;53.15;80.26;;
47109;Laerm;32856;51.422;6.794;2024-03-02T11:58:07;65.15;52.02;75.45;;
47109;Laerm;32856;51.422;6.794;2024-03-02T12:00:35;64.45;52.66;74.91;;
47109;Laerm;32856;51.422;6.794;2024-03-02T12:03:04;65.00;51.75;78.58;;
47109;Laerm;32856;51.422;6.794;2024-03-02T12:05:33;62.53;52.78;74.21;;
47109;Laerm;32856;51.422;6.794;2024-03-02T12:08:02;63.75;54.60;73.51;;
47109;Laerm;32856;51.422;6.794;2024-03-02T12:10:30;66.67;55.12;84.72;;
47109;Laerm;32856;51.422;6.794;2024-03-02T12:12:58;64.38;52.65;79.39;;
47109;Laerm;32856;51.422;6.794;2024-03-02T12:15:28;65.23;53.15;74.13;;
47109;Laerm;32856;51.422;6.794;2024-03-02T12:17:56;65.01;54.32;74.95;;
47109;Laerm;32856;51.422;6.794;2024-03-02T12:20:25;65.08;54.00;77.78;;
47109;Laerm;32856;51.422;6.794;2024-03-02T12:22:53;65.50;52.42;78.96;;
47109;Laerm;32856;51.422;6.794;2024-03-02T12:25:22;65.95;53.24;81.95;;
47109;Laerm;32856;51.422;6.794;2024-03-02T12:27:53;63.53;52.60;73.96;;
47109;Laerm;32856;51.422;6.794;2024-03-02T12:30:22;63.13;50.34;74.38;;
47109;Laerm;32856;51.422;6.794;2024-03-02T12:32:51;64.31;54.87;74.13;;
47109;Laerm;32856;51.422;6.794;2024-03-02T12:35:19;65.43;51.16;77.85;;
47109;Laerm;32856;51.422;6.794;2024-03-02T12:37:47;62.70;52.31;73.78;;
47109;Laerm;32856;51.422;6.794;2024-03-02T12:40:16;64.07;53.26;73.63;;
47109;Laerm;32856;51.422;6.794;2024-03-02T12:42:44;65.78;51.82;78.62;;
47109;Laerm;32856;51.422;6.794;2024-03-02T12:45:12;66.02;52.81;76.75;;
47109;Laerm;32856;51.422;6.794;2024-03-02T12:47:40;65.22;52.61;78.91;;
47109;Laerm;32856;51.422;6.794;2024-03-02T12:50:10;63.21;53.80;72.73;;
47109;Laerm;32856;51.422;6.794;2024-03-02T12:52:37;64.17;53.47;81.86;;
47109;Laerm;32856;51.422;6.794;2024-03-02T12:55:05;64.92;52.26;79.72;;
47109;Laerm;32856;51.422;6.794;2024-03-02T12:57:33;64.65;53.25;77.40;;
47109;Laerm;32856;51.422;6.794;2024-03-02T13:00:01;62.87;52.28;72.45;;
47109;Laerm;32856;51.422;6.794;2024-03-02T13:02:31;64.36;52.34;81.45;;
47109;Laerm;32856;51.422;6.794;2024-03-02T13:05:00;64.64;54.73;75.30;;
47109;Laerm;32856;51.422;6.794;2024-03-02T13:07:29;65.23;53.00;74.62;;
47109;Laerm;32856;51.422;6.794;2024-03-02T13:09:56;65.88;53.82;76.15;;
47109;Laerm;32856;51.422;6.794;2024-03-02T13:12:24;64.60;53.74;76.25;;
47109;Laerm;32856;51.422;6.794;2024-03-02T13:14:52;63.96;52.94;73.44;;
47109;Laerm;32856;51.422;6.794;2024-03-02T13:17:19;65.08;50.71;74.54;;
47109;Laerm;32856;51.422;6.794;2024-03-02T13:19:53;63.84;52.06;74.43;;
47109;Laerm;32856;51.422;6.794;2024-03-02T13:22:20;65.54;54.00;76.26;;
47109;Laerm;32856;51.422;6.794;2024-03-02T13:24:50;61.50;52.84;71.96;;
47109;Laerm;32856;51.422;6.794;2024-03-02T13:27:17;62.88;52.16;72.45;;
47109;Laerm;32856;51.422;6.794;2024-03-02T13:29:45;63.16;52.57;72.48;;
47109;Laerm;32856;51.422;6.794;2024-03-02T13:32:14;63.66;52.51;72.84;;
47109;Laerm;32856;51.422;6.794;2024-03-02T13:34:41;65.74;52.60;76.47;;
47109;Laerm;32856;51.422;6.794;2024-03-02T13:37:09;67.15;53.00;88.29;;
47109;Laerm;32856;51.422;6.794;2024-03-02T13:39:36;64.16;51.84;75.53;;
47109;Laerm;32856;51.422;6.794;2024-03-02T13:42:09;64.45;52.01;79.16;;
47109;Laerm;32856;51.422;6.794;2024-03-02T13:44:38;63.20;51.10;79.59;;
47109;Laerm;32856;51.422;6.794;2024-03-02T13:47:06;63.39;51.60;77.83;;
47109;Laerm;32856;51.422;6.794;2024-03-02T13:49:33;64.09;52.28;73.78;;
47109;Laerm;32856;51.422;6.794;2024-03-02T13:52:03;64.87;52.37;76.91;;
47109;Laerm;32856;51.422;6.794;2024-03-02T13:54:37;61.58;51.79;73.90;;